Time;durP1;ratioP1;P1;durP2;ratioP2;P2;SDS_P1;SDS_P2;PMS_P1;PMS_P2;Temp;Humidity;BMP_temperature;BMP_pressure;BME280_temperature;BME280_humidity;BME280_pressure;Samples;Min_cycle;Max_cycle;Signal;HPM_P1;HPM_P2
2023/03/03 00:00:48;;;;;;;59.42;27.40;;;4.60;77.60;;;;;;5011264;28;20519;-60
2023/03/03 00:03:23;;;;;;;58.08;27.27;;;4.60;77.70;;;;;;5008523;28;20057;-58
2023/03/03 00:05:49;;;;;;;;;;;4.60;77.80;;;;;;5013614;28;20077;-60
2023/03/03 00:08:14;;;;;;;52.85;24.73;;;4.60;78.00;;;;;;5008986;28;19914;-59
2023/03/03 00:10:40;;;;;;;56.60;25.60;;;4.60;77.60;;;;;;5003675;28;20047;-60
2023/03/03 00:13:14;;;;;;;58.35;26.88;;;4.50;77.60;;;;;;5013092;28;20157;-59
2023/03/03 00:15:40;;;;;;;55.35;26.35;;;4.60;77.80;;;;;;5014795;28;20030;-58
2023/03/03 00:18:29;;;;;;;57.35;27.85;;;4.60;77.80;;;;;;5013517;28;20083;-57
2023/03/03 00:20:59;;;;;;;58.13;27.35;;;4.60;77.90;;;;;;5012931;28;20041;-60
2023/03/03 00:23:36;;;;;;;57.58;26.98;;;4.60;77.80;;;;;;5013097;28;20088;-60
2023/03/03 00:26:18;;;;;;;55.00;26.45;;;4.60;77.90;;;;;;5007597;28;20080;-59
2023/03/03 00:28:48;;;;;;;60.00;27.58;;;4.60;77.80;;;;;;5010013;28;20532;-60
2023/03/03 00:31:18;;;;;;;56.70;27.40;;;4.60;77.80;;;;;;5012168;28;20065;-59
2023/03/03 00:33:53;;;;;;;58.05;26.42;;;4.60;77.80;;;;;;5009674;28;20094;-59
2023/03/03 00:36:38;;;;;;;59.47;26.73;;;4.60;77.80;;;;;;5010783;28;20033;-59
2023/03/03 00:39:12;;;;;;;58.47;27.08;;;4.60;78.80;;;;;;5006601;28;20040;-59
2023/03/03 00:41:38;;;;;;;54.90;25.30;;;4.60;78.00;;;;;;5006460;28;20790;-59
2023/03/03 00:44:30;;;;;;;56.33;26.65;;;4.60;77.80;;;;;;5008103;28;20438;-61
2023/03/03 00:46:56;;;;;;;57.35;27.33;;;4.60;78.00;;;;;;5005298;28;20050;-60
2023/03/03 00:49:26;;;;;;;56.75;26.92;;;4.60;77.90;;;;;;5005354;28;20046;-61
2023/03/03 00:51:52;;;;;;;56.83;26.65;;;4.60;78.00;;;;;;5005337;28;20044;-57
2023/03/03 00:54:18;;;;;;;61.55;27.50;;;4.60;78.00;;;;;;5007371;28;20780;-60
2023/03/03 00:56:44;;;;;;;55.88;27.00;;;4.60;78.00;;;;;;5009096;28;20034;-60
2023/03/03 00:59:10;;;;;;;56.13;26.45;;;4.70;78.00;;;;;;5009331;28;20030;-61
2023/03/03 01:01:35;;;;;;;58.10;27.85;;;4.70;78.00;;;;;;5007932;28;20061;-60
2023/03/03 01:04:01;;;;;;;59.58;27.92;;;4.70;78.00;;;;;;5009082;28;20041;-58
2023/03/03 01:06:29;;;;;;;59.25;27.30;;;4.70;77.90;;;;;;5010148;28;20536;-59
2023/03/03 01:08:56;;;;;;;56.78;26.38;;;4.70;78.00;;;;;;5005185;28;20621;-61
2023/03/03 01:11:24;;;;;;;62.30;28.92;;;4.70;77.90;;;;;;5007907;28;20045;-59
2023/03/03 01:13:51;;;;;;;56.78;27.25;;;4.70;77.80;;;;;;5012981;28;20414;-60
2023/03/03 01:16:18;;;;;;;59.78;27.27;;;4.80;77.90;;;;;;5013763;28;20038;-58
2023/03/03 01:18:46;;;;;;;58.75;29.08;;;4.80;77.80;;;;;;5012719;28;20057;-59
2023/03/03 01:21:12;;;;;;;57.67;27.95;;;4.80;77.80;;;;;;5012759;28;20045;-58
2023/03/03 01:23:38;;;;;;;58.63;27.13;;;4.80;77.70;;;;;;5013236;28;20063;-59
2023/03/03 01:26:05;;;;;;;55.88;28.13;;;4.80;77.60;;;;;;5008200;28;20516;-59
2023/03/03 01:28:32;;;;;;;59.88;28.42;;;4.80;77.60;;;;;;5010812;28;20068;-60
2023/03/03 01:31:02;;;;;;;55.95;26.70;;;4.80;77.60;;;;;;5010685;28;20361;-60
2023/03/03 01:33:28;;;;;;;59.45;27.50;;;4.80;77.60;;;;;;5001731;28;20040;-60
2023/03/03 01:35:54;;;;;;;59.10;27.92;;;4.80;77.60;;;;;;5009171;28;20472;-60
2023/03/03 01:38:19;;;;;;;54.88;26.90;;;4.80;77.60;;;;;;5007291;28;20069;-60
2023/03/03 01:40:55;;;;;;;57.03;27.65;;;4.80;77.60;;;;;;5009263;28;20033;-60
2023/03/03 01:43:21;;;;;;;55.08;26.70;;;4.80;77.70;;;;;;5007005;28;20100;-60
2023/03/03 01:45:46;;;;;;;59.17;27.10;;;4.80;77.60;;;;;;5007368;28;20037;-59
2023/03/03 01:48:18;;;;;;;55.75;28.13;;;4.80;77.60;;;;;;5010844;28;20048;-60
2023/03/03 01:51:04;;;;;;;55.45;26.55;;;4.80;77.70;;;;;;5007223;28;20077;-60
2023/03/03 01:53:41;;;;;;;59.45;26.77;;;4.80;77.80;;;;;;5008362;28;20042;-58
2023/03/03 01:56:07;;;;;;;54.85;25.88;;;4.80;77.70;;;;;;5006573;28;20095;-60
2023/03/03 01:58:45;;;;;;;57.15;27.80;;;4.80;77.80;;;;;;5008235;28;20088;-60
2023/03/03 02:01:14;;;;;;;58.97;27.33;;;4.70;77.80;;;;;;5009808;28;20334;-60
2023/03/03 02:03:42;;;;;;;59.25;27.50;;;4.80;77.90;;;;;;5012857;28;20502;-59
2023/03/03 02:06:13;;;;;;;59.08;28.60;;;4.80;77.90;;;;;;5012494;28;20034;-60
2023/03/03 02:08:47;;;;;;;57.80;27.52;;;4.80;78.00;;;;;;5013016;28;20054;-60
2023/03/03 02:11:14;;;;;;;59.15;26.83;;;4.80;78.00;;;;;;5012120;28;20048;-59
2023/03/03 02:13:40;;;;;;;52.75;25.85;;;4.80;78.00;;;;;;5011915;28;20038;-59
2023/03/03 02:16:06;;;;;;;58.72;26.88;;;4.80;77.90;;;;;;5015478;28;20038;-60
2023/03/03 02:18:32;;;;;;;56.42;27.13;;;4.80;78.00;;;;;;5013364;28;20050;-59
2023/03/03 02:21:13;;;;;;;58.30;27.83;;;4.80;77.90;;;;;;5014803;28;20551;-60
2023/03/03 02:23:59;;;;;;;53.85;27.75;;;4.80;78.80;;;;;;5015880;28;20042;-57
2023/03/03 02:26:27;;;;;;;59.63;27.88;;;4.80;77.90;;;;;;5012324;28;20042;-56
2023/03/03 02:28:53;;;;;;;59.30;28.48;;;4.80;77.80;;;;;;5009279;28;20042;-60
2023/03/03 02:31:21;;;;;;;58.80;28.48;;;4.80;77.70;;;;;;5009906;28;20049;-58
2023/03/03 02:33:48;;;;;;;55.45;27.25;;;4.80;77.90;;;;;;5009600;28;20394;-61
2023/03/03 02:36:23;;;;;;;57.25;28.13;;;4.80;77.80;;;;;;5006419;28;20030;-61
2023/03/03 02:39:18;;;;;;;55.22;25.80;;;4.90;77.80;;;;;;5005091;28;20066;-60
2023/03/03 02:42:07;;;;;;;56.90;27.00;;;4.80;77.80;;;;;;5004002;28;20034;-59
2023/03/03 02:44:33;;;;;;;55.03;26.48;;;4.80;77.60;;;;;;5007689;28;20453;-58
2023/03/03 02:46:59;;;;;;;57.80;28.27;;;4.80;77.50;;;;;;5005968;28;20037;-60
2023/03/03 02:49:28;;;;;;;57.28;27.02;;;4.80;77.60;;;;;;5010207;28;20033;-58
2023/03/03 02:51:54;;;;;;;60.00;27.73;;;4.80;77.70;;;;;;5004745;28;20065;-59
2023/03/03 02:54:22;;;;;;;60.08;28.98;;;4.80;77.80;;;;;;5009360;28;20042;-60
2023/03/03 02:56:47;;;;;;;58.97;28.48;;;4.80;77.70;;;;;;5005542;28;21095;-61
2023/03/03 02:59:14;;;;;;;56.05;27.00;;;4.80;77.60;;;;;;5008031;28;20029;-59
2023/03/03 03:01:39;;;;;;;59.60;28.15;;;4.70;77.60;;;;;;5007226;28;20049;-58
2023/03/03 03:04:10;;;;;;;55.30;27.95;;;4.70;77.70;;;;;;5008636;28;20084;-59
2023/03/03 03:06:35;;;;;;;59.67;28.08;;;4.70;77.80;;;;;;5013650;28;20038;-59
2023/03/03 03:09:04;;;;;;;64.13;28.45;;;4.70;77.80;;;;;;5013955;28;20543;-60
2023/03/03 03:11:31;;;;;;;60.90;27.83;;;4.70;78.00;;;;;;5008191;28;21082;-59
2023/03/03 03:13:56;;;;;;;56.00;26.60;;;4.70;78.00;;;;;;5014044;28;20100;-61
2023/03/03 03:16:22;;;;;;;59.30;27.45;;;4.70;78.10;;;;;;5014427;28;20493;-59
2023/03/03 03:18:49;;;;;;;59.00;27.35;;;4.70;78.10;;;;;;5015761;28;20139;-58
2023/03/03 03:21:15;;;;;;;60.38;27.55;;;4.80;78.10;;;;;;5015107;28;20128;-60
2023/03/03 03:23:44;;;;;;;60.35;27.67;;;4.70;78.10;;;;;;5015399;28;20435;-59
2023/03/03 03:26:10;;;;;;;61.85;28.75;;;4.80;78.20;;;;;;5012672;28;20030;-60
2023/03/03 03:28:36;;;;;;;59.22;29.42;;;4.80;78.10;;;;;;5010045;28;20036;-59
2023/03/03 03:31:02;;;;;;;61.53;29.15;;;4.80;78.00;;;;;;5007675;28;20034;-58
2023/03/03 03:33:28;;;;;;;60.53;28.17;;;4.80;78.00;;;;;;5010183;28;20446;-58
2023/03/03 03:35:54;;;;;;;57.85;27.90;;;4.80;77.90;;;;;;5007691;28;20041;-58
2023/03/03 03:38:21;;;;;;;63.55;28.55;;;4.80;78.00;;;;;;5005918;28;20189;-59
2023/03/03 03:40:47;;;;;;;58.08;28.00;;;4.80;77.90;;;;;;5005839;28;21133;-60
2023/03/03 03:43:13;;;;;;;57.42;28.35;;;4.80;77.80;;;;;;5010920;28;20057;-60
2023/03/03 03:45:41;;;;;;;59.88;28.98;;;4.80;77.70;;;;;;5009472;28;20120;-59
2023/03/03 03:48:07;;;;;;;58.67;29.13;;;4.80;77.60;;;;;;5007532;28;20077;-59
2023/03/03 03:50:36;;;;;;;60.75;28.15;;;4.80;77.60;;;;;;5013939;28;20045;-59
2023/03/03 03:53:03;;;;;;;59.03;28.63;;;4.80;77.60;;;;;;5014459;28;20171;-58
2023/03/03 03:55:29;;;;;;;58.90;27.42;;;4.80;77.50;;;;;;5014700;28;20342;-60
2023/03/03 03:57:55;;;;;;;57.05;27.33;;;4.80;77.50;;;;;;5014385;28;20725;-59
2023/03/03 04:00:21;;;;;;;55.97;28.13;;;4.80;77.60;;;;;;5008652;28;20026;-59
2023/03/03 04:02:47;;;;;;;59.17;28.35;;;4.80;77.50;;;;;;5008577;28;20045;-61
2023/03/03 04:05:12;;;;;;;59.33;28.10;;;4.80;77.40;;;;;;5011435;28;20122;-60
2023/03/03 04:07:38;;;;;;;61.88;29.05;;;4.80;77.40;;;;;;5007439;28;20057;-59
2023/03/03 04:10:04;;;;;;;60.63;29.58;;;4.80;77.40;;;;;;5011702;28;20440;-58
2023/03/03 04:12:37;;;;;;;58.85;28.38;;;4.80;77.40;;;;;;5008221;28;20031;-60
2023/03/03 04:15:12;;;;;;;59.55;29.02;;;4.80;77.40;;;;;;5008340;28;20038;-59
2023/03/03 04:17:41;;;;;;;60.63;28.83;;;4.80;77.50;;;;;;5010755;28;20030;-59
2023/03/03 04:20:08;;;;;;;59.67;29.80;;;4.80;77.40;;;;;;5010326;28;20040;-58
2023/03/03 04:22:34;;;;;;;64.80;31.30;;;4.80;77.40;;;;;;5007725;28;20322;-59
2023/03/03 04:25:03;;;;;;;65.88;29.58;;;4.80;77.40;;;;;;5007385;28;20679;-60
2023/03/03 04:27:33;;;;;;;61.47;29.98;;;4.80;77.40;;;;;;5007462;28;20041;-59
2023/03/03 04:30:01;;;;;;;63.83;29.75;;;4.70;77.30;;;;;;5010230;28;20069;-60
2023/03/03 04:32:27;;;;;;;58.90;29.05;;;4.70;77.30;;;;;;5005192;28;20045;-60
2023/03/03 04:34:53;;;;;;;71.05;31.25;;;4.70;77.30;;;;;;5004335;28;20030;-60
2023/03/03 04:37:19;;;;;;;61.50;28.75;;;4.70;77.40;;;;;;5009092;28;20678;-60
2023/03/03 04:39:44;;;;;;;68.55;32.35;;;4.70;77.80;;;;;;5006077;28;20063;-59
2023/03/03 04:42:10;;;;;;;67.65;31.75;;;4.70;77.40;;;;;;5007649;28;20390;-60
2023/03/03 04:44:36;;;;;;;64.70;29.40;;;4.70;77.50;;;;;;5007892;28;20100;-61
2023/03/03 04:47:02;;;;;;;66.72;31.55;;;4.60;77.40;;;;;;5005639;28;20037;-61
2023/03/03 04:49:27;;;;;;;62.58;30.33;;;4.60;77.50;;;;;;5009606;28;20038;-59
2023/03/03 04:51:53;;;;;;;58.67;29.55;;;4.70;77.60;;;;;;5010839;28;20045;-59
2023/03/03 04:54:18;;;;;;;59.42;29.23;;;4.60;77.60;;;;;;5011531;28;20045;-60
2023/03/03 04:56:44;;;;;;;64.75;31.17;;;4.60;77.60;;;;;;5005292;28;20037;-59
2023/03/03 04:59:14;;;;;;;58.97;28.90;;;4.70;77.80;;;;;;5004015;28;20065;-59
2023/03/03 05:01:39;;;;;;;66.20;31.52;;;4.60;77.80;;;;;;5002812;28;20489;-60
2023/03/03 05:04:05;;;;;;;64.75;30.85;;;4.60;77.80;;;;;;5005147;28;20033;-60
2023/03/03 05:06:31;;;;;;;65.90;31.48;;;4.60;77.80;;;;;;5002994;28;20030;-60
2023/03/03 05:08:56;;;;;;;68.75;32.28;;;4.60;77.80;;;;;;5011321;28;20136;-60
2023/03/03 05:11:22;;;;;;;65.95;30.42;;;4.60;77.90;;;;;;5010990;28;20637;-60
2023/03/03 05:13:47;;;;;;;65.85;31.38;;;4.60;77.90;;;;;;5012015;28;20053;-61
2023/03/03 05:16:13;;;;;;;64.18;30.58;;;4.60;78.00;;;;;;5018417;28;20052;-61
2023/03/03 05:18:39;;;;;;;66.40;30.50;;;4.60;78.10;;;;;;5016163;28;20124;-59
2023/03/03 05:21:04;;;;;;;61.10;30.17;;;4.60;78.00;;;;;;5018333;28;20068;-60
2023/03/03 05:23:30;;;;;;;64.32;31.33;;;4.70;78.00;;;;;;5016359;28;20038;-60
2023/03/03 05:25:56;;;;;;;65.03;31.02;;;4.60;78.00;;;;;;5008883;28;20046;-58
2023/03/03 05:28:21;;;;;;;66.35;31.55;;;4.60;78.00;;;;;;5009219;28;20034;-60
2023/03/03 05:30:47;;;;;;;67.97;30.65;;;4.60;78.00;;;;;;5005291;28;20045;-61
2023/03/03 05:33:17;;;;;;;67.20;32.42;;;4.70;78.10;;;;;;5002858;28;20532;-58
2023/03/03 05:35:43;;;;;;;74.35;37.42;;;4.70;78.10;;;;;;5004142;28;20125;-61
2023/03/03 05:38:11;;;;;;;73.30;35.08;;;4.70;78.00;;;;;;5011758;28;20607;-61
2023/03/03 05:40:38;;;;;;;69.68;34.63;;;4.70;78.00;;;;;;5014016;28;20044;-60
2023/03/03 05:43:03;;;;;;;71.68;34.10;;;4.60;77.90;;;;;;5015459;28;20459;-58
2023/03/03 05:45:29;;;;;;;70.20;32.83;;;4.60;78.00;;;;;;5013846;28;20060;-58
2023/03/03 05:47:54;;;;;;;70.72;33.13;;;4.60;78.00;;;;;;5014186;28;20041;-59
2023/03/03 05:50:21;;;;;;;65.78;32.63;;;4.60;78.10;;;;;;5013819;28;20537;-59
2023/03/03 05:52:51;;;;;;;61.60;29.58;;;4.50;78.10;;;;;;5015447;28;20045;-61
2023/03/03 05:55:17;;;;;;;65.88;31.40;;;4.50;78.20;;;;;;5017391;28;20876;-60
2023/03/03 05:57:43;;;;;;;73.82;35.38;;;4.50;78.30;;;;;;5015253;28;20033;-60
2023/03/03 06:00:10;;;;;;;67.05;33.55;;;4.50;78.30;;;;;;5014515;28;20845;-59
2023/03/03 06:02:36;;;;;;;66.00;32.13;;;4.50;78.30;;;;;;5014458;28;20177;-58
2023/03/03 06:05:01;;;;;;;67.80;32.45;;;4.60;78.40;;;;;;5015257;28;20511;-60
2023/03/03 06:07:27;;;;;;;67.93;32.88;;;4.60;78.30;;;;;;5016458;28;20120;-59
2023/03/03 06:09:52;;;;;;;64.28;31.52;;;4.50;78.30;;;;;;5014891;28;20046;-60
2023/03/03 06:12:18;;;;;;;68.47;32.05;;;4.60;78.20;;;;;;5016268;28;20107;-60
2023/03/03 06:14:43;;;;;;;69.60;32.78;;;4.60;78.30;;;;;;5012954;28;20405;-59
2023/03/03 06:17:09;;;;;;;69.13;33.35;;;4.60;78.30;;;;;;5014837;28;20037;-60
2023/03/03 06:19:36;;;;;;;71.72;31.80;;;4.60;78.30;;;;;;5014087;28;20561;-59
2023/03/03 06:22:01;;;;;;;65.88;31.98;;;4.60;78.30;;;;;;5013896;28;20107;-60
2023/03/03 06:24:29;;;;;;;64.30;31.08;;;4.60;78.20;;;;;;5014704;28;20678;-59
2023/03/03 06:26:56;;;;;;;66.65;32.03;;;4.60;78.20;;;;;;5015480;28;20097;-61
2023/03/03 06:29:21;;;;;;;70.05;32.13;;;4.60;78.30;;;;;;5016123;28;20265;-60
2023/03/03 06:31:47;;;;;;;71.78;31.88;;;4.60;78.30;;;;;;5015263;28;20045;-59
2023/03/03 06:34:12;;;;;;;66.32;31.38;;;4.60;78.30;;;;;;5013113;28;20038;-58
2023/03/03 06:36:38;;;;;;;70.47;31.85;;;4.60;78.40;;;;;;5014637;28;20458;-61
2023/03/03 06:39:04;;;;;;;69.28;32.67;;;4.60;78.50;;;;;;5013197;28;20037;-59
2023/03/03 06:41:29;;;;;;;68.25;31.23;;;4.60;78.50;;;;;;5014797;28;20052;-59
2023/03/03 06:43:56;;;;;;;68.35;30.90;;;4.60;78.40;;;;;;5014663;28;20484;-59
2023/03/03 06:46:22;;;;;;;68.43;31.90;;;4.60;78.50;;;;;;5015237;28;20052;-60
2023/03/03 06:48:47;;;;;;;61.85;30.40;;;4.60;78.50;;;;;;5013285;28;20041;-61
2023/03/03 06:51:23;;;;;;;65.28;31.38;;;4.70;78.50;;;;;;5014890;28;20050;-60
2023/03/03 06:53:55;;;;;;;68.88;31.92;;;4.70;78.60;;;;;;5014875;28;20042;-58
2023/03/03 06:56:23;;;;;;;67.93;33.03;;;4.70;78.60;;;;;;5016373;28;20033;-61
2023/03/03 06:58:49;;;;;;;67.07;33.13;;;4.70;78.50;;;;;;5014853;28;20080;-60
2023/03/03 07:01:16;;;;;;;71.20;33.72;;;4.70;78.50;;;;;;5012237;28;20070;-60
2023/03/03 07:03:42;;;;;;;70.50;33.95;;;4.70;78.50;;;;;;5011556;28;20557;-60
2023/03/03 07:06:23;;;;;;;67.22;32.30;;;4.70;78.30;;;;;;5011534;28;20073;-59
2023/03/03 07:08:50;;;;;;;65.53;32.05;;;4.70;78.40;;;;;;5011806;28;20076;-59
2023/03/03 07:11:19;;;;;;;65.07;31.77;;;4.70;78.40;;;;;;5012244;28;20038;-59
2023/03/03 07:13:50;;;;;;;74.00;32.88;;;4.70;78.50;;;;;;5011291;28;20041;-61
2023/03/03 07:16:18;;;;;;;72.32;33.30;;;4.70;78.60;;;;;;5012469;28;20049;-57
2023/03/03 07:18:53;;;;;;;69.75;33.42;;;4.70;78.60;;;;;;5014804;28;20041;-60
2023/03/03 07:21:30;;;;;;;72.55;33.92;;;4.70;78.60;;;;;;5013527;28;20120;-58
2023/03/03 07:23:58;;;;;;;72.32;33.90;;;4.70;78.60;;;;;;5015715;28;20087;-60
2023/03/03 07:26:34;;;;;;;74.60;35.08;;;4.70;78.50;;;;;;5012994;28;20057;-58
2023/03/03 07:29:21;;;;;;;79.32;34.20;;;4.80;78.80;;;;;;5013863;28;20095;-59
2023/03/03 07:31:48;;;;;;;71.82;32.50;;;4.70;78.70;;;;;;5010371;28;20347;-58
2023/03/03 07:34:21;;;;;;;65.22;32.53;;;4.70;78.70;;;;;;5012837;28;20044;-60
2023/03/03 07:36:52;;;;;;;67.97;34.53;;;4.70;78.80;;;;;;5013635;28;20042;-57
2023/03/03 07:39:20;;;;;;;70.35;34.08;;;4.80;78.90;;;;;;5011729;28;20078;-59
2023/03/03 07:41:46;;;;;;;69.53;33.15;;;4.80;78.90;;;;;;5013537;28;20061;-59
2023/03/03 07:44:24;;;;;;;71.57;33.33;;;4.80;79.90;;;;;;5010648;28;20080;-60
2023/03/03 07:46:50;;;;;;;69.63;32.45;;;4.80;79.00;;;;;;5012619;28;20033;-59
2023/03/03 07:49:29;;;;;;;72.00;35.17;;;4.90;78.90;;;;;;5013878;28;20531;-58
2023/03/03 07:51:56;;;;;;;70.40;33.38;;;4.90;78.90;;;;;;5011865;28;20045;-57
2023/03/03 07:54:39;;;;;;;71.60;33.92;;;4.90;78.80;;;;;;5014247;28;20500;-60
2023/03/03 07:57:10;;;;;;;71.30;33.97;;;5.00;79.00;;;;;;5012985;28;20546;-60
2023/03/03 07:59:40;;;;;;;67.60;33.17;;;5.00;78.80;;;;;;5013793;28;20537;-60
2023/03/03 08:02:28;;;;;;;69.82;32.90;;;5.00;78.80;;;;;;5012217;28;20044;-60
2023/03/03 08:04:54;;;;;;;66.18;32.40;;;5.00;78.60;;;;;;4996459;28;20911;-60
2023/03/03 08:07:22;;;;;;;68.95;33.28;;;5.00;78.60;;;;;;5010743;28;20030;-59
2023/03/03 08:10:00;;;;;;;67.30;31.75;;;5.10;78.60;;;;;;5014959;28;20064;-60
2023/03/03 08:12:43;;;;;;;69.15;33.63;;;5.10;78.60;;;;;;5015877;28;20099;-61
2023/03/03 08:15:19;;;;;;;66.57;32.88;;;5.20;78.50;;;;;;5010532;28;20134;-60
2023/03/03 08:17:45;;;;;;;65.28;32.25;;;5.20;78.40;;;;;;5012740;28;20038;-60
2023/03/03 08:20:42;;;;;;;70.82;33.45;;;5.20;78.30;;;;;;5012072;28;20090;-60
2023/03/03 08:23:07;;;;;;;73.78;32.08;;;5.20;78.40;;;;;;4988876;28;20057;-61
2023/03/03 08:25:33;;;;;;;66.05;32.60;;;5.30;78.40;;;;;;4999238;28;20030;-59
2023/03/03 08:27:58;;;;;;;68.43;33.65;;;5.20;78.30;;;;;;5013424;28;20121;-61
2023/03/03 08:30:24;;;;;;;66.93;34.33;;;5.20;78.20;;;;;;5010305;28;20045;-61
2023/03/03 08:32:49;;;;;;;70.40;34.17;;;5.30;78.30;;;;;;5011167;28;20034;-59
2023/03/03 08:35:15;;;;;;;72.10;34.80;;;5.30;78.30;;;;;;5011055;28;20079;-61
2023/03/03 08:37:41;;;;;;;69.28;33.70;;;5.30;78.30;;;;;;5010384;28;20494;-60
2023/03/03 08:40:07;;;;;;;70.22;32.38;;;5.30;78.30;;;;;;5008302;28;20517;-60
2023/03/03 08:42:32;;;;;;;63.95;31.83;;;5.30;78.30;;;;;;5008377;28;20492;-60
2023/03/03 08:44:58;;;;;;;62.53;31.65;;;5.30;78.20;;;;;;5010485;28;20081;-61
2023/03/03 08:47:24;;;;;;;65.50;32.58;;;5.30;78.30;;;;;;5012643;28;20094;-62
2023/03/03 08:49:50;;;;;;;67.85;33.30;;;5.40;78.30;;;;;;5009746;28;20227;-60
2023/03/03 08:52:15;;;;;;;69.22;33.83;;;5.40;78.20;;;;;;5010379;28;20033;-60
2023/03/03 08:54:41;;;;;;;67.88;32.63;;;5.40;78.20;;;;;;5012148;28;20429;-60
2023/03/03 08:57:06;;;;;;;66.00;33.10;;;5.40;78.20;;;;;;5012967;28;20038;-59
2023/03/03 08:59:36;;;;;;;70.40;33.90;;;5.50;78.30;;;;;;5013897;28;20034;-60
2023/03/03 09:02:02;;;;;;;66.45;33.00;;;5.50;78.20;;;;;;5006398;28;20397;-60
2023/03/03 09:04:28;;;;;;;64.43;32.67;;;5.50;78.00;;;;;;5008486;28;20585;-61
2023/03/03 09:06:53;;;;;;;67.32;33.80;;;5.50;78.00;;;;;;5011448;28;20037;-59
2023/03/03 09:09:19;;;;;;;67.45;33.78;;;5.50;78.00;;;;;;5012273;28;20080;-60
2023/03/03 09:11:46;;;;;;;68.57;32.65;;;5.50;77.90;;;;;;5010194;28;20033;-61
2023/03/03 09:14:13;;;;;;;63.63;32.65;;;5.50;78.00;;;;;;5012370;28;20033;-61
2023/03/03 09:16:45;;;;;;;67.30;32.88;;;5.50;78.20;;;;;;5010453;28;20038;-61
2023/03/03 09:19:31;;;;;;;62.50;31.80;;;5.50;78.30;;;;;;5011161;28;20084;-58
2023/03/03 09:22:08;;;;;;;65.28;32.35;;;5.60;78.40;;;;;;5010594;28;20088;-60
2023/03/03 09:24:35;;;;;;;61.03;31.73;;;5.60;78.50;;;;;;5009378;28;21061;-61
2023/03/03 09:27:01;;;;;;;62.83;32.42;;;5.60;78.30;;;;;;5008890;28;20417;-61
2023/03/03 09:29:36;;;;;;;61.40;33.08;;;5.70;78.40;;;;;;5012185;28;20056;-61
2023/03/03 09:32:27;;;;;;;61.90;32.92;;;5.70;78.40;;;;;;5007498;28;20068;-61
2023/03/03 09:34:53;;;;;;;65.28;32.20;;;5.80;78.30;;;;;;5009726;28;20033;-61
2023/03/03 09:37:39;;;;;;;64.72;32.55;;;5.80;78.10;;;;;;5011772;28;20038;-61
2023/03/03 09:40:43;;;;;;;63.92;33.30;;;5.90;77.90;;;;;;5010856;28;20076;-60
2023/03/03 09:43:16;;;;;;;63.08;30.92;;;5.90;77.80;;;;;;4998212;28;20074;-61
2023/03/03 09:46:02;;;;;;;64.82;33.10;;;6.00;77.80;;;;;;5008743;28;20045;-59
2023/03/03 09:48:38;;;;;;;66.43;33.03;;;6.00;77.60;;;;;;5011186;28;20096;-60
2023/03/03 09:51:21;;;;;;;64.18;31.83;;;6.10;77.60;;;;;;5009775;28;20133;-59
2023/03/03 09:54:25;;;;;;;64.00;31.42;;;6.10;77.50;;;;;;5009261;28;20444;-61
2023/03/03 09:57:22;;;;;;;65.40;31.30;;;6.10;77.10;;;;;;4994906;28;20034;-60
2023/03/03 10:00:26;;;;;;;72.30;33.03;;;6.20;77.20;;;;;;5014659;28;20045;-58
2023/03/03 10:03:19;;;;;;;69.57;32.85;;;6.20;77.30;;;;;;5009534;28;20041;-59
2023/03/03 10:06:10;;;;;;;64.30;31.67;;;6.20;77.20;;;;;;5009968;28;20515;-60
2023/03/03 10:08:51;;;;;;;63.78;33.15;;;6.30;77.20;;;;;;5010559;28;20037;-60
2023/03/03 10:11:38;;;;;;;65.28;32.83;;;6.30;77.30;;;;;;5011059;28;20200;-60
2023/03/03 10:14:32;;;;;;;58.53;30.83;;;6.40;78.10;;;;;;5014194;28;20075;-60
2023/03/03 10:17:29;;;;;;;60.88;31.30;;;6.40;76.90;;;;;;5012544;28;20104;-60
2023/03/03 10:19:58;;;;;;;60.85;31.85;;;6.50;77.00;;;;;;5017424;28;20045;-58
2023/03/03 10:22:27;;;;;;;60.58;31.25;;;6.50;78.10;;;;;;5010984;28;20038;-59
2023/03/03 10:25:01;;;;;;;60.22;32.20;;;6.60;77.30;;;;;;5010785;28;20069;-61
2023/03/03 10:27:33;;;;;;;65.65;32.67;;;6.60;77.10;;;;;;5013995;28;20030;-61
2023/03/03 10:30:38;;;;;;;64.72;32.47;;;6.70;76.90;;;;;;5016078;28;20049;-60
2023/03/03 10:33:29;;;;;;;63.30;32.10;;;6.80;76.00;;;;;;5014338;28;20080;-61
2023/03/03 10:36:22;;;;;;;63.55;32.55;;;6.80;76.20;;;;;;5011435;28;20060;-60
2023/03/03 10:39:16;;;;;;;61.97;30.58;;;6.80;76.30;;;;;;5011671;28;20128;-61
2023/03/03 10:41:48;;;;;;;65.30;31.95;;;6.80;76.10;;;;;;5013142;28;20033;-61
2023/03/03 10:44:31;;;;;;;59.95;32.08;;;6.90;76.10;;;;;;5014324;28;20045;-62
2023/03/03 10:47:13;;;;;;;61.92;31.88;;;6.90;76.00;;;;;;5011307;28;20029;-60
2023/03/03 10:50:11;;;;;;;62.63;30.88;;;6.90;76.30;;;;;;5013810;28;20096;-59
2023/03/03 10:52:36;;;;;;;57.65;30.75;;;7.00;76.00;;;;;;5008616;28;20115;-61
2023/03/03 10:55:25;;;;;;;59.55;30.75;;;7.00;76.30;;;;;;5011713;28;20116;-61
2023/03/03 10:58:02;;;;;;;59.67;31.95;;;7.00;76.10;;;;;;5013116;28;20042;-60
2023/03/03 11:00:51;;;;;;;60.50;32.38;;;7.10;76.20;;;;;;5013786;28;20037;-60
2023/03/03 11:03:26;;;;;;;59.35;31.60;;;7.10;75.90;;;;;;5011435;28;20044;-60
2023/03/03 11:05:59;;;;;;;61.67;32.65;;;7.20;75.80;;;;;;5013317;28;20037;-59
2023/03/03 11:08:39;;;;;;;62.83;32.28;;;7.20;75.80;;;;;;5016923;28;20033;-61
2023/03/03 11:11:40;;;;;;;58.53;31.73;;;7.20;75.60;;;;;;5015556;28;20048;-59
2023/03/03 11:14:11;;;;;;;62.33;32.33;;;7.30;75.30;;;;;;5018178;28;20072;-60
2023/03/03 11:16:43;;;;;;;60.70;33.35;;;7.30;75.40;;;;;;5016348;28;20060;-59
2023/03/03 11:19:10;;;;;;;60.97;32.50;;;7.30;75.80;;;;;;5017443;28;20583;-59
2023/03/03 11:22:08;;;;;;;56.83;31.60;;;7.40;75.60;;;;;;5017151;28;20057;-61
2023/03/03 11:25:02;;;;;;;59.97;31.85;;;7.40;74.90;;;;;;5003918;28;20323;-60
2023/03/03 11:27:49;;;;;;;56.20;31.25;;;7.40;75.40;;;;;;5013581;28;20037;-59
2023/03/03 11:30:23;;;;;;;56.70;31.63;;;7.50;75.70;;;;;;5011524;28;20181;-60
2023/03/03 11:33:04;;;;;;;60.60;31.25;;;7.50;75.50;;;;;;5002925;28;20117;-61
2023/03/03 11:35:48;;;;;;;56.17;31.30;;;7.60;75.10;;;;;;5013724;28;20072;-61
2023/03/03 11:38:25;;;;;;;57.95;30.80;;;7.70;75.40;;;;;;5012810;28;20026;-60
2023/03/03 11:41:03;;;;;;;59.17;30.10;;;7.70;75.40;;;;;;5013270;28;20030;-60
2023/03/03 11:43:37;;;;;;;58.33;31.35;;;7.80;75.30;;;;;;5015602;28;20599;-62
2023/03/03 11:46:16;;;;;;;56.47;30.90;;;7.90;75.30;;;;;;5015786;28;20064;-60
2023/03/03 11:48:51;;;;;;;62.42;33.55;;;7.90;75.10;;;;;;5013800;28;20432;-60
2023/03/03 11:51:22;;;;;;;;;;;7.90;74.20;;;;;;5009238;28;20105;-59
2023/03/03 11:54:00;;;;;;;59.15;31.67;;;8.00;74.20;;;;;;5006424;28;19921;-61
2023/03/03 11:56:43;;;;;;;63.05;33.90;;;8.00;74.40;;;;;;5013228;28;20045;-60
2023/03/03 11:59:20;;;;;;;60.22;32.00;;;8.00;73.70;;;;;;5008620;28;20069;-60
2023/03/03 12:02:03;;;;;;;56.40;30.77;;;8.00;74.20;;;;;;5012703;28;20041;-61
2023/03/03 12:04:43;;;;;;;60.72;32.40;;;8.00;74.20;;;;;;5005454;28;20057;-60
2023/03/03 12:07:23;;;;;;;59.00;31.92;;;8.00;74.00;;;;;;5012263;28;20064;-61
2023/03/03 12:10:10;;;;;;;59.35;31.52;;;8.10;73.90;;;;;;5009984;28;20038;-61
2023/03/03 12:12:42;;;;;;;58.00;31.27;;;8.10;73.90;;;;;;5007053;28;20037;-59
2023/03/03 12:15:27;;;;;;;57.25;31.70;;;8.10;74.40;;;;;;5013073;28;20034;-59
2023/03/03 12:17:56;;;;;;;;;;;8.20;74.70;;;;;;5009273;28;20215;-59
2023/03/03 12:20:30;;;;;;;61.10;31.58;;;8.30;73.80;;;;;;5010149;28;19917;-60
2023/03/03 12:23:28;;;;;;;61.78;32.70;;;8.30;73.90;;;;;;5005879;28;20033;-60
2023/03/03 12:26:13;;;;;;;61.22;31.50;;;8.30;72.50;;;;;;5003758;28;20095;-58
2023/03/03 12:28:58;;;;;;;55.38;31.13;;;8.30;72.80;;;;;;5007800;28;20038;-60
2023/03/03 12:31:58;;;;;;;53.92;30.20;;;8.30;73.20;;;;;;5007403;28;20053;-61
2023/03/03 12:34:40;;;;;;;54.60;29.60;;;8.30;73.30;;;;;;5012937;28;20125;-61
2023/03/03 12:37:18;;;;;;;56.97;31.90;;;8.40;73.40;;;;;;5011439;28;20509;-60
2023/03/03 12:39:51;;;;;;;58.25;30.33;;;8.40;73.70;;;;;;5010393;28;20552;-62
2023/03/03 12:42:58;;;;;;;57.88;31.85;;;8.40;73.40;;;;;;5011944;28;20493;-60
2023/03/03 12:45:26;;;;;;;54.13;30.15;;;8.50;72.90;;;;;;4999374;28;20049;-59
2023/03/03 12:48:00;;;;;;;56.22;31.98;;;8.60;73.60;;;;;;5012894;28;20038;-60
2023/03/03 12:51:05;;;;;;;54.25;30.77;;;8.60;73.30;;;;;;5011870;28;20028;-61
2023/03/03 12:53:44;;;;;;;59.17;32.70;;;8.70;73.20;;;;;;5003589;28;20128;-61
2023/03/03 12:56:17;;;;;;;57.28;31.73;;;8.80;73.20;;;;;;5008314;28;20288;-60
2023/03/03 12:59:03;;;;;;;55.80;31.23;;;8.80;72.40;;;;;;5006646;28;20541;-60
2023/03/03 13:02:16;;;;;;;53.25;30.05;;;8.80;72.80;;;;;;5008409;28;20822;-59
2023/03/03 13:05:05;;;;;;;54.65;29.02;;;8.90;72.50;;;;;;5006121;28;20117;-57